createdAt,value
2018-02-13T00:00:16.714Z,4.10
2018-02-13T00:02:45.795Z,4.57
2018-02-13T00:05:14.115Z,3.63
2018-02-13T00:07:42.494Z,4.43
2018-02-13T00:10:11.568Z,4.63
2018-02-13T00:12:39.868Z,3.97
2018-02-13T00:15:08.152Z,3.90
2018-02-13T00:17:36.580Z,4.43
2018-02-13T00:20:05.658Z,4.60
2018-02-13T00:22:49.265Z,4.27
2018-02-13T00:25:17.580Z,4.67
2018-02-13T00:27:45.932Z,4.77
2018-02-13T00:30:14.340Z,4.27
2018-02-13T00:32:42.680Z,4.63
2018-02-13T00:35:11.014Z,4.27
2018-02-13T00:37:40.132Z,4.37
2018-02-13T00:40:08.461Z,4.60
2018-02-13T00:42:36.760Z,4.47
2018-02-13T00:45:05.070Z,4.53
2018-02-13T00:47:34.122Z,5.30
2018-02-13T00:50:02.407Z,4.53
2018-02-13T00:52:30.693Z,4.80
2018-02-13T00:54:59.007Z,4.73
2018-02-13T00:57:28.071Z,4.90
2018-02-13T00:59:56.413Z,4.80
2018-02-13T01:02:24.749Z,4.20
2018-02-13T01:04:53.054Z,5.30
2018-02-13T01:07:22.128Z,5.17
2018-02-13T01:09:50.451Z,4.27
2018-02-13T01:12:18.742Z,5.17
2018-02-13T01:14:47.060Z,5.90
2018-02-13T01:17:16.196Z,5.57
2018-02-13T01:19:45.277Z,6.30
2018-02-13T01:22:13.596Z,5.47
2018-02-13T01:24:41.935Z,5.47
2018-02-13T01:27:10.243Z,5.50
2018-02-13T01:29:39.327Z,6.00
2018-02-13T01:32:07.723Z,6.27
2018-02-13T01:34:36.813Z,6.67
2018-02-13T01:37:05.897Z,6.90
2018-02-13T01:39:34.205Z,6.53
2018-02-13T01:42:03.300Z,7.27
2018-02-13T01:44:32.370Z,6.60
2018-02-13T01:47:00.752Z,6.90
2018-02-13T01:49:29.101Z,6.80
2018-02-13T01:51:57.399Z,7.10
2018-02-13T01:54:26.662Z,6.30
2018-02-13T01:56:55.743Z,6.50
2018-02-13T01:59:24.049Z,8.00
2018-02-13T02:01:52.356Z,7.07
2018-02-13T02:04:20.691Z,7.70
2018-02-13T02:06:49.747Z,7.60
2018-02-13T02:09:18.054Z,7.77
2018-02-13T02:11:47.150Z,8.50
2018-02-13T02:14:15.493Z,7.10
2018-02-13T02:16:44.393Z,7.80
2018-02-13T02:19:12.685Z,7.50
2018-02-13T02:21:41.026Z,7.70
2018-02-13T02:24:09.402Z,7.93
2018-02-13T02:26:37.730Z,8.37
2018-02-13T02:29:06.053Z,9.43
2018-02-13T02:31:35.112Z,10.40
2018-02-13T02:34:03.412Z,9.17
2018-02-13T02:36:31.736Z,9.30
2018-02-13T02:39:00.122Z,9.73
2018-02-13T02:41:28.390Z,10.23
2018-02-13T02:43:57.512Z,10.13
2018-02-13T02:46:25.900Z,11.70
2018-02-13T02:48:54.249Z,11.00
2018-02-13T02:51:23.356Z,10.40
2018-02-13T02:53:52.462Z,12.77
2018-02-13T02:56:21.536Z,11.03
2018-02-13T02:58:49.864Z,12.20
2018-02-13T03:01:18.168Z,12.60
2018-02-13T03:03:46.513Z,11.73
2018-02-13T03:06:14.920Z,11.50
2018-02-13T03:08:43.393Z,11.90
2018-02-13T03:11:11.705Z,11.73
2018-02-13T03:13:40.044Z,12.50
2018-02-13T03:16:08.366Z,13.20
2018-02-13T03:18:36.713Z,12.30
2018-02-13T03:21:05.066Z,12.80
2018-02-13T03:23:33.407Z,12.17
2018-02-13T03:26:01.724Z,13.17
2018-02-13T03:28:30.062Z,12.10
2018-02-13T03:30:58.482Z,14.20
2018-02-13T03:33:26.840Z,13.40
2018-02-13T03:35:55.194Z,12.00
2018-02-13T03:38:24.309Z,13.37
2018-02-13T03:40:53.401Z,12.23
2018-02-13T03:43:21.731Z,12.20
2018-02-13T03:45:50.045Z,13.27
2018-02-13T03:48:19.151Z,12.83
2018-02-13T03:50:47.509Z,13.10
2018-02-13T03:53:15.843Z,12.10
2018-02-13T03:55:44.171Z,12.50
2018-02-13T03:58:12.503Z,13.40
2018-02-13T04:00:40.847Z,12.83
2018-02-13T04:03:09.928Z,12.93
2018-02-13T04:05:38.259Z,12.90
2018-02-13T04:08:06.565Z,13.17
2018-02-13T04:10:34.926Z,13.47
2018-02-13T04:13:03.261Z,13.10
2018-02-13T04:15:32.451Z,12.80
2018-02-13T04:18:00.757Z,12.37
2018-02-13T04:20:29.853Z,13.20
2018-02-13T04:22:58.931Z,12.63
2018-02-13T04:25:27.238Z,13.60
2018-02-13T04:27:56.351Z,12.50
2018-02-13T04:30:24.653Z,12.23
2018-02-13T04:32:52.969Z,13.27
2018-02-13T04:35:21.380Z,13.10
2018-02-13T04:37:49.713Z,11.60
2018-02-13T04:40:18.009Z,12.50
2018-02-13T04:42:46.329Z,12.07
2018-02-13T04:45:15.427Z,12.57
2018-02-13T04:47:44.494Z,11.80
2018-02-13T04:50:12.835Z,12.20
2018-02-13T04:52:41.159Z,13.00
2018-02-13T04:55:10.178Z,12.80
2018-02-13T04:57:38.501Z,12.87
2018-02-13T05:00:07.563Z,13.33
2018-02-13T05:02:36.683Z,13.10
2018-02-13T05:05:05.792Z,13.37
2018-02-13T05:07:34.099Z,12.53
2018-02-13T05:10:02.433Z,12.67
2018-02-13T05:12:31.514Z,12.50
2018-02-13T05:14:59.844Z,13.33
2018-02-13T05:17:29.024Z,13.77
2018-02-13T05:19:58.127Z,12.80
2018-02-13T05:22:27.201Z,12.73
2018-02-13T05:24:55.603Z,12.00
2018-02-13T05:27:24.684Z,11.77
2018-02-13T05:29:53.013Z,11.80
2018-02-13T05:32:21.347Z,12.30
2018-02-13T05:34:49.675Z,13.40
2018-02-13T05:37:17.986Z,12.70
2018-02-13T05:39:46.305Z,11.80
2018-02-13T05:42:15.469Z,12.77
2018-02-13T05:44:43.741Z,12.57
2018-02-13T05:47:12.049Z,11.90
2018-02-13T05:49:40.343Z,12.70
2018-02-13T05:52:09.431Z,11.87
2018-02-13T05:54:37.795Z,12.13
2018-02-13T05:57:06.111Z,12.00
2018-02-13T05:59:35.198Z,12.80
2018-02-13T06:02:03.523Z,11.47
2018-02-13T06:04:31.827Z,11.97
2018-02-13T06:07:00.137Z,12.40
2018-02-13T06:09:28.487Z,12.80
2018-02-13T06:11:56.821Z,12.27
2018-02-13T06:14:25.919Z,11.73
2018-02-13T06:16:54.995Z,11.37
2018-02-13T06:19:23.365Z,12.10
2018-02-13T06:21:51.657Z,10.73
2018-02-13T06:24:19.965Z,12.30
2018-02-13T06:26:49.051Z,12.07
2018-02-13T06:29:17.382Z,10.87
2018-02-13T06:31:45.702Z,10.43
2018-02-13T06:34:14.810Z,10.93
2018-02-13T06:36:43.966Z,11.33
2018-02-13T06:39:13.057Z,12.50
2018-02-13T06:41:41.379Z,12.03
2018-02-13T06:44:09.682Z,11.70
2018-02-13T06:46:38.011Z,12.90
2018-02-13T06:49:06.343Z,11.67
2018-02-13T06:51:34.739Z,11.43
2018-02-13T06:54:03.810Z,11.20
2018-02-13T06:56:32.912Z,10.97
2018-02-13T06:59:01.247Z,12.30
2018-02-13T07:01:29.618Z,10.47
2018-02-13T07:03:58.690Z,12.77
2018-02-13T07:06:27.003Z,10.57
2018-02-13T07:08:55.355Z,11.93
2018-02-13T07:11:23.712Z,11.63
2018-02-13T07:13:52.195Z,10.80
2018-02-13T07:16:20.520Z,11.33
2018-02-13T07:18:49.629Z,11.40
2018-02-13T07:21:18.702Z,11.47
2018-02-13T07:23:47.038Z,11.90
2018-02-13T07:26:15.332Z,11.43
2018-02-13T07:28:43.641Z,11.47
2018-02-13T07:31:11.967Z,10.50
2018-02-13T07:33:40.255Z,12.17
2018-02-13T07:36:08.578Z,12.17
2018-02-13T07:38:36.895Z,11.60
2018-02-13T07:41:05.977Z,12.17
2018-02-13T07:43:34.287Z,11.80
2018-02-13T07:46:02.605Z,12.40
2018-02-13T07:48:31.650Z,10.50
2018-02-13T07:51:00.727Z,10.87
2018-02-13T07:53:29.023Z,10.70
2018-02-13T07:55:58.141Z,10.30
2018-02-13T07:58:27.215Z,10.60
2018-02-13T08:00:55.508Z,10.00
2018-02-13T08:03:24.562Z,10.93
2018-02-13T08:05:52.963Z,10.50
2018-02-13T08:08:21.279Z,10.90
2018-02-13T08:10:50.353Z,11.50
2018-02-13T08:13:18.766Z,10.80
2018-02-13T08:15:47.835Z,9.33
2018-02-13T08:18:16.123Z,9.50
2018-02-13T08:20:44.414Z,9.10
2018-02-13T08:23:13.506Z,9.30
2018-02-13T08:25:42.594Z,8.80
2018-02-13T08:28:10.905Z,9.23
2018-02-13T08:30:39.972Z,7.83
2018-02-13T08:33:08.365Z,8.70
2018-02-13T08:35:37.572Z,8.57
2018-02-13T08:38:05.960Z,7.03
2018-02-13T08:40:35.752Z,7.67
2018-02-13T08:43:04.067Z,7.77
2018-02-13T08:45:33.138Z,7.67
2018-02-13T08:48:01.473Z,7.27
2018-02-13T08:50:29.764Z,7.80
2018-02-13T08:52:58.063Z,7.77
2018-02-13T08:55:26.352Z,7.07
2018-02-13T08:57:54.748Z,8.20
2018-02-13T09:00:23.134Z,7.50
2018-02-13T09:02:51.463Z,7.00
2018-02-13T09:05:19.777Z,7.30
2018-02-13T09:07:48.089Z,7.17
2018-02-13T09:10:16.406Z,6.83
2018-02-13T09:12:44.790Z,6.97
2018-02-13T09:15:13.092Z,5.73
2018-02-13T09:17:41.390Z,5.77
2018-02-13T09:20:09.709Z,5.83
2018-02-13T09:22:38.848Z,7.10
2018-02-13T09:25:07.736Z,5.73
2018-02-13T09:27:36.042Z,5.73
2018-02-13T09:30:04.328Z,6.13
2018-02-13T09:32:32.630Z,5.90
2018-02-13T09:35:00.930Z,6.40
2018-02-13T09:37:29.978Z,6.13
2018-02-13T09:39:58.298Z,5.60
2018-02-13T09:42:26.608Z,6.50
2018-02-13T09:44:55.683Z,5.57
2018-02-13T09:47:24.006Z,5.77
2018-02-13T09:49:52.304Z,5.80
2018-02-13T09:52:20.618Z,5.97
2018-02-13T09:54:48.928Z,5.50
2018-02-13T09:57:17.252Z,5.30
2018-02-13T09:59:45.575Z,5.20
2018-02-13T10:02:14.642Z,5.13
2018-02-13T10:04:42.946Z,5.57
2018-02-13T10:07:11.241Z,5.27
2018-02-13T10:09:40.291Z,5.27
2018-02-13T10:12:08.601Z,6.00
2018-02-13T10:14:36.885Z,5.30
2018-02-13T10:17:05.185Z,5.30
2018-02-13T10:19:34.230Z,5.60
2018-02-13T10:22:02.520Z,5.70
2018-02-13T10:24:30.808Z,6.07
2018-02-13T10:26:59.140Z,4.97
2018-02-13T10:29:28.212Z,5.03
2018-02-13T10:31:56.536Z,5.60
2018-02-13T10:34:24.908Z,4.70
2018-02-13T10:36:53.180Z,5.30
2018-02-13T10:39:21.568Z,4.90
2018-02-13T10:41:49.957Z,5.10
2018-02-13T10:44:18.297Z,5.30
2018-02-13T10:46:46.586Z,4.83
2018-02-13T10:49:14.900Z,4.20
2018-02-13T10:51:43.921Z,5.23
2018-02-13T10:54:12.238Z,4.93
2018-02-13T10:56:40.551Z,4.40
2018-02-13T10:59:08.884Z,4.60
2018-02-13T11:01:40.000Z,5.63
2018-02-13T11:04:08.292Z,5.40
2018-02-13T11:06:36.600Z,4.60
2018-02-13T11:09:04.908Z,4.23
2018-02-13T11:11:33.986Z,6.53
2018-02-13T11:14:02.305Z,5.10
2018-02-13T11:16:31.386Z,5.40
2018-02-13T11:19:00.530Z,4.67
2018-02-13T11:21:28.864Z,5.00
2018-02-13T11:23:57.184Z,5.03
2018-02-13T11:26:25.476Z,4.60
2018-02-13T11:28:53.796Z,5.90
2018-02-13T11:31:22.117Z,5.00
2018-02-13T11:33:51.230Z,4.57
2018-02-13T11:36:19.515Z,5.47
2018-02-13T11:38:47.804Z,4.70
2018-02-13T11:41:16.122Z,4.60
2018-02-13T11:43:44.431Z,4.97
2018-02-13T11:46:13.524Z,4.70
2018-02-13T11:48:42.582Z,5.73
2018-02-13T11:51:10.878Z,4.97
2018-02-13T11:53:39.158Z,4.87
2018-02-13T11:56:07.444Z,4.97
2018-02-13T11:58:35.751Z,4.47
2018-02-13T12:01:04.052Z,5.13
2018-02-13T12:03:32.348Z,4.80
2018-02-13T12:06:00.626Z,4.90
2018-02-13T12:08:28.925Z,5.40
2018-02-13T12:10:57.819Z,5.03
2018-02-13T12:13:26.106Z,5.20
2018-02-13T12:15:54.412Z,4.50
2018-02-13T12:18:22.706Z,5.17
2018-02-13T12:20:51.021Z,4.77
2018-02-13T12:23:19.346Z,4.83
2018-02-13T12:25:47.672Z,5.33
2018-02-13T12:28:16.710Z,5.07
2018-02-13T12:30:45.030Z,4.33
2018-02-13T12:33:13.924Z,4.50
2018-02-13T12:35:42.218Z,4.50
2018-02-13T12:38:11.306Z,4.33
2018-02-13T12:40:39.617Z,4.27
2018-02-13T12:43:07.971Z,4.17
2018-02-13T12:45:37.030Z,4.90
2018-02-13T12:48:05.355Z,5.83
2018-02-13T12:50:34.410Z,4.30
2018-02-13T12:53:02.738Z,4.60
2018-02-13T12:55:31.839Z,4.27
2018-02-13T12:58:00.896Z,4.90
2018-02-13T13:00:29.226Z,4.87
2018-02-13T13:02:58.318Z,4.80
2018-02-13T13:05:27.462Z,4.23
2018-02-13T13:07:56.532Z,4.27
2018-02-13T13:10:24.836Z,5.30
2018-02-13T13:12:53.148Z,4.40
2018-02-13T13:15:21.426Z,3.90
2018-02-13T13:17:49.723Z,4.43
2018-02-13T13:20:18.128Z,4.10
2018-02-13T13:22:47.199Z,4.00
2018-02-13T13:25:15.496Z,3.53
2018-02-13T13:27:43.812Z,3.83
2018-02-13T13:30:12.128Z,4.03
2018-02-13T13:32:40.510Z,3.40
2018-02-13T13:35:08.830Z,3.70
2018-02-13T13:37:37.929Z,3.87
2018-02-13T13:40:07.026Z,3.40
2018-02-13T13:42:36.090Z,3.47
2018-02-13T13:45:04.375Z,3.13
2018-02-13T13:47:32.686Z,3.10
2018-02-13T13:50:01.118Z,2.70
2018-02-13T13:52:29.439Z,3.53
2018-02-13T13:54:57.743Z,2.90
2018-02-13T13:57:26.812Z,2.97
2018-02-13T13:59:55.913Z,3.00
2018-02-13T14:02:24.260Z,3.00
2018-02-13T14:04:52.628Z,3.00
2018-02-13T14:07:20.957Z,3.80
2018-02-13T14:09:49.242Z,3.27
2018-02-13T14:12:17.534Z,2.83
2018-02-13T14:14:45.820Z,2.60
2018-02-13T14:17:14.098Z,2.63
2018-02-13T14:19:42.388Z,2.50
2018-02-13T14:22:11.461Z,2.77
2018-02-13T14:24:39.749Z,2.73
2018-02-13T14:27:08.042Z,2.50
2018-02-13T14:29:36.372Z,2.93
2018-02-13T14:32:04.693Z,2.80
2018-02-13T14:34:33.031Z,2.50
2018-02-13T14:37:01.337Z,3.07
2018-02-13T14:39:29.701Z,2.20
2018-02-13T14:41:58.044Z,2.33
2018-02-13T14:44:26.299Z,2.60
2018-02-13T14:46:54.600Z,2.50
2018-02-13T14:49:23.658Z,2.60
2018-02-13T14:51:51.947Z,2.40
2018-02-13T14:54:20.270Z,2.50
2018-02-13T14:56:49.339Z,2.40
2018-02-13T14:59:17.618Z,2.40
2018-02-13T15:01:45.984Z,2.60
2018-02-13T15:04:14.305Z,2.27
2018-02-13T15:06:44.248Z,2.63
2018-02-13T15:09:12.578Z,2.20
2018-02-13T15:11:40.883Z,2.80
2018-02-13T15:14:09.961Z,2.13
2018-02-13T15:16:50.133Z,2.33
2018-02-13T15:19:18.440Z,2.03
2018-02-13T15:21:46.768Z,2.60
2018-02-13T15:24:15.091Z,2.00
2018-02-13T15:26:44.159Z,2.37
2018-02-13T15:29:12.462Z,3.03
2018-02-13T15:31:42.887Z,2.10
2018-02-13T15:34:11.191Z,2.10
2018-02-13T15:36:40.237Z,2.73
2018-02-13T15:39:08.539Z,2.17
2018-02-13T15:41:36.840Z,2.00
2018-02-13T15:44:05.917Z,2.00
2018-02-13T15:46:34.206Z,2.10
2018-02-13T15:49:02.569Z,2.40
2018-02-13T15:51:30.867Z,2.90
2018-02-13T15:53:59.182Z,2.00
2018-02-13T15:56:27.523Z,2.20
2018-02-13T15:58:56.578Z,2.57
2018-02-13T16:01:25.769Z,3.17
2018-02-13T16:03:54.073Z,2.90
2018-02-13T16:06:22.397Z,3.20
2018-02-13T16:08:51.456Z,2.70
2018-02-13T16:11:19.759Z,2.40
2018-02-13T16:13:48.059Z,2.83
2018-02-13T16:16:16.385Z,2.47
2018-02-13T16:18:45.174Z,2.60
2018-02-13T16:21:13.529Z,2.30
2018-02-13T16:23:42.597Z,2.30
2018-02-13T16:26:10.907Z,2.30
2018-02-13T16:28:40.008Z,3.30
2018-02-13T16:31:08.405Z,2.80
2018-02-13T16:33:37.463Z,2.30
2018-02-13T16:36:07.211Z,2.93
2018-02-13T16:38:36.327Z,2.40
2018-02-13T16:41:04.620Z,2.30
2018-02-13T16:43:32.915Z,3.57
2018-02-13T16:46:01.866Z,2.87
2018-02-13T16:48:30.943Z,2.53
2018-02-13T16:50:59.301Z,3.00
2018-02-13T16:53:27.641Z,2.77
2018-02-13T16:55:55.943Z,3.30
2018-02-13T16:58:24.279Z,3.00
2018-02-13T17:00:52.572Z,3.10
2018-02-13T17:03:21.713Z,2.73
2018-02-13T17:05:50.013Z,2.80
2018-02-13T17:08:18.304Z,2.90
2018-02-13T17:10:46.602Z,3.07
2018-02-13T17:13:14.915Z,2.93
2018-02-13T17:15:43.305Z,2.27
2018-02-13T17:18:11.627Z,2.70
2018-02-13T17:20:39.924Z,2.97
2018-02-13T17:23:08.252Z,3.17
2018-02-13T17:25:36.654Z,2.33
2018-02-13T17:28:05.309Z,3.27
2018-02-13T17:30:33.589Z,2.77
2018-02-13T17:33:01.896Z,3.03
2018-02-13T17:35:30.191Z,2.70
2018-02-13T17:37:58.522Z,2.70
2018-02-13T17:40:27.642Z,2.30
2018-02-13T17:42:55.947Z,2.83
2018-02-13T17:45:24.254Z,2.80
2018-02-13T17:47:52.600Z,3.10
2018-02-13T17:50:20.922Z,2.60
2018-02-13T17:52:49.205Z,3.23
2018-02-13T17:55:18.263Z,3.10
2018-02-13T17:57:46.559Z,3.20
2018-02-13T18:00:14.958Z,2.80
2018-02-13T18:02:43.290Z,3.57
2018-02-13T18:05:12.366Z,3.13
2018-02-13T18:07:41.449Z,2.83
2018-02-13T18:10:09.780Z,3.70
2018-02-13T18:12:38.111Z,3.10
2018-02-13T18:15:07.196Z,3.33
2018-02-13T18:17:36.128Z,6.03
2018-02-13T18:20:05.228Z,5.37
2018-02-13T18:22:34.329Z,5.93
2018-02-13T18:25:02.684Z,3.20
2018-02-13T18:27:30.995Z,3.50
2018-02-13T18:30:00.088Z,4.63
2018-02-13T18:32:29.199Z,4.23
2018-02-13T18:34:58.281Z,3.93
2018-02-13T18:37:26.590Z,4.03
2018-02-13T18:39:54.896Z,4.10
2018-02-13T18:42:23.181Z,4.20
2018-02-13T18:44:51.481Z,4.30
2018-02-13T18:47:19.792Z,4.00
2018-02-13T18:49:48.875Z,4.23
2018-02-13T18:54:45.478Z,4.40
2018-02-13T18:57:13.831Z,4.30
2018-02-13T18:59:42.138Z,5.10
2018-02-13T19:02:10.441Z,4.10
2018-02-13T19:04:38.732Z,3.90
2018-02-13T19:07:07.022Z,5.20
2018-02-13T19:09:35.347Z,5.20
2018-02-13T19:12:04.426Z,4.87
2018-02-13T19:14:32.727Z,4.53
2018-02-13T19:19:30.059Z,4.47
2018-02-13T19:21:58.438Z,4.93
2018-02-13T19:24:27.455Z,5.43
2018-02-13T19:26:55.743Z,4.47
2018-02-13T19:29:24.072Z,4.93
2018-02-13T19:31:52.388Z,4.60
2018-02-13T19:34:20.676Z,4.50
2018-02-13T19:36:48.977Z,4.90
2018-02-13T19:39:18.052Z,5.53
2018-02-13T19:41:47.233Z,4.90
2018-02-13T19:44:15.565Z,4.90
2018-02-13T19:46:43.846Z,4.70
2018-02-13T19:49:12.158Z,4.57
2018-02-13T19:51:40.480Z,5.53
2018-02-13T19:54:08.833Z,4.63
2018-02-13T19:56:37.208Z,5.40
2018-02-13T19:59:05.586Z,4.60
2018-02-13T20:01:33.891Z,4.50
2018-02-13T20:04:02.257Z,4.70
2018-02-13T20:06:30.550Z,4.97
2018-02-13T20:08:58.887Z,4.73
2018-02-13T20:11:27.214Z,5.10
2018-02-13T20:13:55.502Z,5.03
2018-02-13T20:16:23.826Z,4.93
2018-02-13T20:18:52.153Z,4.67
2018-02-13T20:21:20.487Z,4.20
2018-02-13T20:23:49.595Z,5.10
2018-02-13T20:26:18.751Z,5.00
2018-02-13T20:28:47.129Z,5.43
2018-02-13T20:31:16.077Z,5.13
2018-02-13T20:33:44.381Z,5.40
2018-02-13T20:36:12.676Z,5.10
2018-02-13T20:38:40.963Z,5.00
2018-02-13T20:41:09.291Z,4.73
2018-02-13T20:43:37.601Z,5.50
2018-02-13T20:46:05.942Z,5.27
2018-02-13T20:48:34.274Z,5.30
2018-02-13T20:51:02.605Z,5.00
2018-02-13T20:53:30.925Z,5.43
2018-02-13T20:55:59.998Z,5.50
2018-02-13T20:58:28.355Z,5.40
2018-02-13T21:00:56.708Z,5.30
2018-02-13T21:03:25.011Z,4.70
2018-02-13T21:05:53.325Z,5.27
2018-02-13T21:08:21.623Z,5.33
2018-02-13T21:10:50.700Z,4.70
2018-02-13T21:13:19.010Z,5.63
2018-02-13T21:15:48.109Z,6.67
2018-02-13T21:18:17.198Z,5.63
2018-02-13T21:20:45.514Z,7.17
2018-02-13T21:23:13.812Z,7.77
2018-02-13T21:25:42.108Z,5.80
2018-02-13T21:28:10.416Z,6.00
2018-02-13T21:30:38.745Z,6.93
2018-02-13T21:33:07.048Z,5.90
2018-02-13T21:35:35.369Z,5.33
2018-02-13T21:38:04.449Z,6.07
2018-02-13T21:40:32.751Z,5.83
2018-02-13T21:43:01.819Z,5.90
2018-02-13T21:45:30.120Z,6.00
2018-02-13T21:47:58.440Z,5.87
2018-02-13T21:50:26.764Z,5.50
2018-02-13T21:52:55.075Z,5.87
2018-02-13T21:55:23.371Z,5.50
2018-02-13T21:57:52.481Z,6.27
2018-02-13T22:00:20.805Z,6.40
2018-02-13T22:02:49.127Z,5.97
2018-02-13T22:05:18.220Z,5.97
2018-02-13T22:07:47.334Z,6.13
2018-02-13T22:10:15.640Z,6.13
2018-02-13T22:12:43.953Z,7.33
2018-02-13T22:15:12.289Z,6.00
2018-02-13T22:17:40.599Z,6.00
2018-02-13T22:20:08.896Z,5.40
2018-02-13T22:22:37.206Z,5.13
2018-02-13T22:25:05.508Z,6.77
2018-02-13T22:27:34.585Z,6.10
2018-02-13T22:30:02.900Z,5.73
2018-02-13T22:32:31.484Z,5.73
2018-02-13T22:34:59.868Z,6.80
2018-02-13T22:37:28.919Z,5.20
2018-02-13T22:39:57.235Z,5.30
2018-02-13T22:42:26.307Z,5.30
2018-02-13T22:44:54.606Z,6.03
2018-02-13T22:47:23.798Z,5.90
2018-02-13T22:49:52.110Z,5.30
2018-02-13T22:52:20.401Z,4.80
2018-02-13T22:54:48.730Z,6.33
2018-02-13T22:57:17.029Z,5.90
2018-02-13T22:59:46.102Z,6.07
2018-02-13T23:02:14.394Z,5.83
2018-02-13T23:04:42.757Z,5.50
2018-02-13T23:07:11.094Z,5.07
2018-02-13T23:09:39.394Z,5.83
2018-02-13T23:12:07.696Z,5.80
2018-02-13T23:14:36.002Z,5.97
2018-02-13T23:17:04.350Z,5.40
2018-02-13T23:19:32.659Z,5.73
2018-02-13T23:22:00.981Z,6.40
2018-02-13T23:24:29.277Z,8.47
2018-02-13T23:26:57.596Z,6.43
2018-02-13T23:29:25.954Z,6.10
2018-02-13T23:31:54.246Z,6.40
2018-02-13T23:34:22.552Z,7.73
2018-02-13T23:36:50.858Z,6.80
2018-02-13T23:39:19.952Z,5.63
2018-02-13T23:41:49.059Z,6.60
2018-02-13T23:44:18.120Z,5.23
2018-02-13T23:46:46.410Z,8.50
2018-02-13T23:49:14.736Z,6.00
2018-02-13T23:51:43.054Z,5.80
2018-02-13T23:54:11.379Z,6.67
2018-02-13T23:56:39.678Z,7.80
2018-02-13T23:59:08.747Z,6.53
